Time;durP1;ratioP1;P1;durP2;ratioP2;P2;SDS_P1;SDS_P2;PMS_P1;PMS_P2;Temp;Humidity;BMP_temperature;BMP_pressure;BME280_temperature;BME280_humidity;BME280_pressure;Samples;Min_cycle;Max_cycle;Signal;HPM_P1;HPM_P2
2023/04/10 00:00:06;;;;;;;28.95;14.45;;;;;;;;;;6098017;23;20033;-82
2023/04/10 00:02:32;;;;;;;24.52;13.38;;;;;;;;;;6121228;23;20017;-82
2023/04/10 00:04:58;;;;;;;22.05;12.57;;;;;;;;;;6120952;23;20759;-81
2023/04/10 00:07:24;;;;;;;28.35;12.95;;;;;;;;;;6120111;23;20017;-81
2023/04/10 00:09:49;;;;;;;24.80;13.38;;;;;;;;;;6122454;23;20710;-81
2023/04/10 00:12:15;;;;;;;27.30;13.20;;;;;;;;;;6123537;23;20091;-81
2023/04/10 00:14:40;;;;;;;27.55;13.60;;;;;;;;;;6099870;23;20125;-82
2023/04/10 00:17:06;;;;;;;29.48;14.35;;;;;;;;;;6120721;23;20014;-82
2023/04/10 00:19:32;;;;;;;28.13;14.25;;;;;;;;;;6123218;23;20216;-82
2023/04/10 00:21:57;;;;;;;26.85;14.13;;;;;;;;;;6121995;23;20040;-81
2023/04/10 00:24:22;;;;;;;30.13;15.15;;;;;;;;;;6121982;23;20009;-82
2023/04/10 00:26:48;;;;;;;28.15;13.90;;;;;;;;;;6120682;23;20021;-82
2023/04/10 00:29:13;;;;;;;29.15;14.38;;;;;;;;;;6147434;23;20075;-81
2023/04/10 00:31:39;;;;;;;28.65;14.60;;;;;;;;;;6120928;23;20016;-81
2023/04/10 00:34:04;;;;;;;28.85;14.95;;;;;;;;;;6146441;23;20023;-82
2023/04/10 00:36:30;;;;;;;28.50;14.52;;;;;;;;;;6146684;23;20029;-81
2023/04/10 00:38:56;;;;;;;27.88;14.88;;;;;;;;;;6121679;23;20040;-81
2023/04/10 00:41:22;;;;;;;28.75;15.63;;;;;;;;;;6122509;23;20013;-81
2023/04/10 00:43:48;;;;;;;31.95;16.50;;;;;;;;;;6148531;23;20127;-81
2023/04/10 00:46:13;;;;;;;33.25;16.25;;;;;;;;;;6148157;23;20045;-81
2023/04/10 00:48:39;;;;;;;31.17;15.27;;;;;;;;;;6123383;23;20018;-81
2023/04/10 00:51:05;;;;;;;31.83;16.08;;;;;;;;;;6121723;23;20013;-83
2023/04/10 00:53:31;;;;;;;31.08;15.80;;;;;;;;;;6121846;23;20352;-82
2023/04/10 00:55:57;;;;;;;24.23;14.10;;;;;;;;;;6147170;23;20025;-82
2023/04/10 00:58:23;;;;;;;31.55;15.85;;;;;;;;;;6100641;23;20020;-81
2023/04/10 01:00:48;;;;;;;32.20;15.55;;;;;;;;;;6124639;23;20355;-81
2023/04/10 01:03:15;;;;;;;32.20;16.05;;;;;;;;;;6101098;23;20063;-81
2023/04/10 01:05:55;;;;;;;33.28;16.63;;;;;;;;;;6124943;23;20013;-80
2023/04/10 01:08:29;;;;;;;27.85;15.13;;;;;;;;;;6149508;23;20452;-81
2023/04/10 01:11:05;;;;;;;32.05;15.35;;;;;;;;;;6151845;23;20371;-81
2023/04/10 01:13:42;;;;;;;27.15;15.52;;;;;;;;;;6129483;23;20544;-82
2023/04/10 01:16:10;;;;;;;30.80;14.55;;;;;;;;;;6150505;23;20017;-81
2023/04/10 01:18:59;;;;;;;30.50;15.68;;;;;;;;;;6098319;23;20777;-81
2023/04/10 01:21:25;;;;;;;28.17;14.63;;;;;;;;;;6124151;23;20376;-82
2023/04/10 01:24:07;;;;;;;26.70;15.35;;;;;;;;;;6123014;23;20071;-82
2023/04/10 01:26:47;;;;;;;28.08;15.60;;;;;;;;;;6121423;23;20126;-83
2023/04/10 01:29:18;;;;;;;28.83;15.30;;;;;;;;;;6121498;23;20470;-82
2023/04/10 01:31:54;;;;;;;32.38;15.82;;;;;;;;;;6120546;23;20025;-81
2023/04/10 01:34:23;;;;;;;32.17;15.95;;;;;;;;;;6147930;23;20017;-81
2023/04/10 01:36:52;;;;;;;31.85;15.45;;;;;;;;;;6120663;23;20028;-81
2023/04/10 01:39:20;;;;;;;28.55;14.40;;;;;;;;;;6123272;23;20017;-81
2023/04/10 01:41:47;;;;;;;29.33;14.73;;;;;;;;;;6121898;23;20021;-81
2023/04/10 01:44:15;;;;;;;29.90;15.32;;;;;;;;;;6148047;23;20341;-81
2023/04/10 01:46:42;;;;;;;28.40;15.20;;;;;;;;;;6121151;23;20017;-81
2023/04/10 01:49:08;;;;;;;29.35;15.10;;;;;;;;;;6123054;23;20022;-81
2023/04/10 01:51:34;;;;;;;28.13;15.88;;;;;;;;;;6096292;23;20072;-81
2023/04/10 01:54:01;;;;;;;30.88;15.82;;;;;;;;;;6120806;23;20028;-81
2023/04/10 01:56:27;;;;;;;31.63;15.00;;;;;;;;;;6096271;23;20017;-81
2023/04/10 01:58:52;;;;;;;24.63;14.45;;;;;;;;;;6124616;23;20462;-82
2023/04/10 02:01:19;;;;;;;30.00;14.73;;;;;;;;;;6127053;23;20052;-81
2023/04/10 02:03:46;;;;;;;26.27;15.70;;;;;;;;;;6096209;23;20112;-81
2023/04/10 02:06:25;;;;;;;28.45;14.80;;;;;;;;;;6122654;23;20088;-81
2023/04/10 02:09:11;;;;;;;31.85;15.57;;;;;;;;;;6149065;23;20013;-82
2023/04/10 02:11:58;;;;;;;31.23;15.00;;;;;;;;;;6125347;23;20025;-82
2023/04/10 02:14:28;;;;;;;28.60;15.07;;;;;;;;;;6124930;23;20018;-81
2023/04/10 02:16:54;;;;;;;29.08;15.63;;;;;;;;;;6101827;23;20018;-81
2023/04/10 02:19:20;;;;;;;27.77;14.63;;;;;;;;;;6131430;23;20554;-82
2023/04/10 02:21:46;;;;;;;28.25;15.35;;;;;;;;;;6126399;23;20028;-82
2023/04/10 02:24:11;;;;;;;34.20;16.17;;;;;;;;;;6153754;23;20028;-82
2023/04/10 02:26:50;;;;;;;29.17;15.20;;;;;;;;;;6124569;23;20022;-82
2023/04/10 02:29:16;;;;;;;32.30;16.42;;;;;;;;;;6124285;23;20458;-81
2023/04/10 02:31:42;;;;;;;36.15;17.70;;;;;;;;;;6149741;23;20018;-81
2023/04/10 02:34:08;;;;;;;31.48;15.65;;;;;;;;;;6152620;23;20013;-81
2023/04/10 02:36:35;;;;;;;37.17;18.13;;;;;;;;;;6153232;23;20766;-82
2023/04/10 02:39:00;;;;;;;32.80;16.73;;;;;;;;;;6155498;23;20362;-82
2023/04/10 02:41:25;;;;;;;30.05;15.18;;;;;;;;;;6126977;23;20041;-82
2023/04/10 02:43:51;;;;;;;34.35;17.23;;;;;;;;;;6122055;23;20017;-81
2023/04/10 02:46:19;;;;;;;32.78;16.38;;;;;;;;;;6150877;23;20379;-81
2023/04/10 02:48:44;;;;;;;31.35;16.55;;;;;;;;;;6125650;23;20076;-81
2023/04/10 02:51:09;;;;;;;27.73;15.77;;;;;;;;;;6148597;23;20017;-81
2023/04/10 02:53:35;;;;;;;31.88;15.63;;;;;;;;;;6148271;23;20053;-81
2023/04/10 02:56:01;;;;;;;34.95;17.52;;;;;;;;;;6124067;23;20104;-82
2023/04/10 02:58:27;;;;;;;31.92;17.63;;;;;;;;;;6154066;23;20049;-82
2023/04/10 03:00:52;;;;;;;30.20;16.25;;;;;;;;;;6153425;23;20316;-81
2023/04/10 03:03:18;;;;;;;33.05;17.92;;;;;;;;;;6147632;23;20117;-81
2023/04/10 03:05:48;;;;;;;33.00;17.40;;;;;;;;;;6147379;23;20390;-81
2023/04/10 03:08:16;;;;;;;34.92;17.48;;;;;;;;;;6121233;23;20041;-81
2023/04/10 03:10:43;;;;;;;34.08;18.33;;;;;;;;;;6122852;23;20108;-81
2023/04/10 03:13:09;;;;;;;35.03;17.65;;;;;;;;;;6147895;23;20084;-81
2023/04/10 03:15:34;;;;;;;36.95;17.85;;;;;;;;;;6120290;23;20045;-82
2023/04/10 03:18:00;;;;;;;31.25;17.02;;;;;;;;;;6122211;23;20435;-81
2023/04/10 03:20:25;;;;;;;31.35;16.20;;;;;;;;;;6123252;23;20009;-82
2023/04/10 03:22:50;;;;;;;34.67;16.05;;;;;;;;;;6121596;23;20551;-81
2023/04/10 03:25:19;;;;;;;34.38;17.48;;;;;;;;;;6145803;23;20018;-81
2023/04/10 03:27:46;;;;;;;33.33;17.13;;;;;;;;;;6143822;23;20021;-82
2023/04/10 03:30:11;;;;;;;33.58;16.95;;;;;;;;;;6146295;23;20017;-82
2023/04/10 03:32:37;;;;;;;34.00;17.02;;;;;;;;;;6118108;23;20080;-82
2023/04/10 03:35:03;;;;;;;32.33;16.85;;;;;;;;;;6144755;23;20093;-82
2023/04/10 03:37:28;;;;;;;31.88;17.10;;;;;;;;;;6120614;23;20042;-82
2023/04/10 03:39:54;;;;;;;30.15;16.20;;;;;;;;;;6122276;23;20097;-82
2023/04/10 03:42:20;;;;;;;32.90;16.35;;;;;;;;;;6119620;23;20020;-82
2023/04/10 03:44:45;;;;;;;35.00;16.83;;;;;;;;;;6145828;23;20352;-81
2023/04/10 03:47:10;;;;;;;30.98;16.75;;;;;;;;;;6096002;23;20047;-82
2023/04/10 03:49:36;;;;;;;33.92;16.15;;;;;;;;;;6146318;23;20080;-82
2023/04/10 03:52:01;;;;;;;30.38;17.08;;;;;;;;;;6145421;23;20447;-82
2023/04/10 03:54:27;;;;;;;30.52;16.88;;;;;;;;;;6147939;23;20328;-82
2023/04/10 03:56:52;;;;;;;36.15;17.75;;;;;;;;;;6096806;23;20076;-82
2023/04/10 03:59:17;;;;;;;32.35;15.88;;;;;;;;;;6125028;23;20014;-82
2023/04/10 04:01:43;;;;;;;36.78;16.95;;;;;;;;;;6150425;23;20475;-81
2023/04/10 04:04:08;;;;;;;34.53;15.88;;;;;;;;;;6099326;23;20426;-82
2023/04/10 04:06:34;;;;;;;30.42;16.50;;;;;;;;;;6148641;23;20042;-82
2023/04/10 04:08:59;;;;;;;34.42;17.20;;;;;;;;;;6149595;23;20028;-82
2023/04/10 04:11:24;;;;;;;31.20;18.55;;;;;;;;;;6101659;23;20013;-81
2023/04/10 04:13:50;;;;;;;30.85;16.30;;;;;;;;;;6127792;23;20017;-81
2023/04/10 04:16:15;;;;;;;32.17;17.20;;;;;;;;;;6123767;23;20410;-82
2023/04/10 04:18:40;;;;;;;29.40;15.82;;;;;;;;;;6150537;23;20088;-82
2023/04/10 04:21:07;;;;;;;32.58;17.50;;;;;;;;;;6151474;23;20515;-82
2023/04/10 04:23:33;;;;;;;29.55;15.95;;;;;;;;;;6149649;23;20020;-81
2023/04/10 04:25:58;;;;;;;33.25;17.35;;;;;;;;;;6119532;23;20105;-81
2023/04/10 04:28:23;;;;;;;33.47;17.85;;;;;;;;;;6145995;23;20010;-81
2023/04/10 04:30:49;;;;;;;29.67;16.05;;;;;;;;;;6145392;23;20067;-81
2023/04/10 04:33:14;;;;;;;33.35;17.55;;;;;;;;;;6119835;23;20036;-81
2023/04/10 04:35:40;;;;;;;34.85;18.13;;;;;;;;;;6120750;23;20025;-82
2023/04/10 04:38:05;;;;;;;34.08;18.48;;;;;;;;;;6121010;23;20184;-82
2023/04/10 04:40:30;;;;;;;33.72;19.58;;;;;;;;;;6147702;23;20149;-82
2023/04/10 04:42:56;;;;;;;34.08;18.65;;;;;;;;;;6146030;23;20407;-81
2023/04/10 04:45:21;;;;;;;38.10;19.63;;;;;;;;;;6119682;23;20076;-81
2023/04/10 04:47:47;;;;;;;35.88;18.92;;;;;;;;;;6146248;23;20467;-81
2023/04/10 04:50:12;;;;;;;35.85;17.38;;;;;;;;;;6146848;23;20013;-82
2023/04/10 04:52:37;;;;;;;36.78;18.65;;;;;;;;;;6119278;23;20040;-81
2023/04/10 04:55:03;;;;;;;36.22;17.98;;;;;;;;;;6120483;23;20040;-81
2023/04/10 04:57:28;;;;;;;36.63;20.02;;;;;;;;;;6145676;23;20127;-81
2023/04/10 04:59:54;;;;;;;36.30;18.15;;;;;;;;;;6152265;23;20016;-81
2023/04/10 05:02:21;;;;;;;31.83;18.52;;;;;;;;;;6125186;23;20033;-81
2023/04/10 05:04:47;;;;;;;37.85;18.48;;;;;;;;;;6148613;23;20013;-81
2023/04/10 05:07:12;;;;;;;35.25;18.73;;;;;;;;;;6146052;23;20356;-80
2023/04/10 05:09:37;;;;;;;30.20;17.30;;;;;;;;;;6120403;23;20037;-81
2023/04/10 05:12:03;;;;;;;32.88;18.55;;;;;;;;;;6146641;23;20348;-81
2023/04/10 05:14:28;;;;;;;37.28;19.08;;;;;;;;;;6121456;23;20009;-81
2023/04/10 05:16:54;;;;;;;32.47;18.33;;;;;;;;;;6145192;23;20486;-81
2023/04/10 05:19:19;;;;;;;35.72;18.67;;;;;;;;;;6120940;23;20672;-81
2023/04/10 05:21:45;;;;;;;31.80;18.67;;;;;;;;;;6118842;23;20014;-81
2023/04/10 05:24:10;;;;;;;39.85;19.70;;;;;;;;;;6146966;23;20021;-82
2023/04/10 05:26:36;;;;;;;36.63;19.42;;;;;;;;;;6145572;23;20024;-81
2023/04/10 05:29:01;;;;;;;35.35;18.13;;;;;;;;;;6147750;23;20436;-81
2023/04/10 05:31:27;;;;;;;37.88;19.23;;;;;;;;;;6121396;23;20021;-81
2023/04/10 05:33:52;;;;;;;35.83;18.92;;;;;;;;;;6096788;23;20009;-81
2023/04/10 05:36:17;;;;;;;35.00;18.35;;;;;;;;;;6120296;23;20091;-82
2023/04/10 05:38:43;;;;;;;33.40;18.85;;;;;;;;;;6146654;23;20014;-84
2023/04/10 05:41:08;;;;;;;40.22;18.95;;;;;;;;;;6095414;23;20016;-84
2023/04/10 05:43:34;;;;;;;30.55;17.55;;;;;;;;;;6144828;23;20021;-84
2023/04/10 05:45:59;;;;;;;28.95;16.50;;;;;;;;;;6118191;23;20006;-83
2023/04/10 05:48:25;;;;;;;31.77;17.52;;;;;;;;;;6144541;23;20017;-83
2023/04/10 05:50:51;;;;;;;31.83;17.05;;;;;;;;;;6104988;23;20029;-83
2023/04/10 05:53:18;;;;;;;31.70;17.75;;;;;;;;;;6118687;23;20396;-83
2023/04/10 05:55:43;;;;;;;27.25;15.45;;;;;;;;;;6144755;23;20018;-84
2023/04/10 05:58:08;;;;;;;30.98;17.20;;;;;;;;;;6121272;23;20020;-83
2023/04/10 06:00:34;;;;;;;27.17;15.45;;;;;;;;;;6121821;23;20047;-83
2023/04/10 06:03:00;;;;;;;31.10;16.92;;;;;;;;;;6146169;23;20013;-83
2023/04/10 06:05:26;;;;;;;24.77;14.63;;;;;;;;;;6120211;23;20021;-83
2023/04/10 06:07:51;;;;;;;25.70;14.43;;;;;;;;;;6145027;23;20160;-83
2023/04/10 06:10:17;;;;;;;27.55;15.43;;;;;;;;;;6144367;23;20045;-83
2023/04/10 06:12:42;;;;;;;26.98;14.90;;;;;;;;;;6121061;23;20395;-84
2023/04/10 06:15:08;;;;;;;26.42;14.68;;;;;;;;;;6144576;23;20014;-84
2023/04/10 06:17:33;;;;;;;26.45;16.05;;;;;;;;;;6117626;23;20026;-84
2023/04/10 06:20:03;;;;;;;27.20;14.88;;;;;;;;;;6094255;23;20021;-84
2023/04/10 06:22:29;;;;;;;27.33;15.35;;;;;;;;;;6118592;23;20009;-83
2023/04/10 06:24:55;;;;;;;27.05;15.40;;;;;;;;;;6119411;23;20017;-83
2023/04/10 06:27:20;;;;;;;27.25;15.48;;;;;;;;;;6117641;23;20013;-83
2023/04/10 06:29:45;;;;;;;26.63;15.38;;;;;;;;;;6119139;23;20037;-83
2023/04/10 06:32:11;;;;;;;28.75;16.52;;;;;;;;;;6144900;23;20072;-84
2023/04/10 06:34:36;;;;;;;28.70;15.45;;;;;;;;;;6144828;23;20014;-84
2023/04/10 06:37:02;;;;;;;27.02;15.80;;;;;;;;;;6118200;23;20036;-84
2023/04/10 06:39:27;;;;;;;28.85;16.42;;;;;;;;;;6094295;23;20083;-84
2023/04/10 06:41:52;;;;;;;30.10;17.13;;;;;;;;;;6145315;23;20022;-84
2023/04/10 06:44:18;;;;;;;30.50;17.33;;;;;;;;;;6125393;23;20021;-84
2023/04/10 06:46:43;;;;;;;28.98;16.50;;;;;;;;;;6119983;23;20017;-84
2023/04/10 06:49:09;;;;;;;30.58;17.13;;;;;;;;;;6120285;23;20048;-83
2023/04/10 06:51:34;;;;;;;32.05;15.63;;;;;;;;;;6117973;23;20024;-84
2023/04/10 06:54:00;;;;;;;31.75;15.95;;;;;;;;;;6145224;23;20028;-84
2023/04/10 06:56:25;;;;;;;27.50;16.40;;;;;;;;;;6119349;23;20014;-84
2023/04/10 06:58:51;;;;;;;26.95;15.35;;;;;;;;;;6120541;23;20430;-84
2023/04/10 07:01:16;;;;;;;27.23;15.60;;;;;;;;;;6097143;23;20092;-83
2023/04/10 07:03:42;;;;;;;29.23;15.98;;;;;;;;;;6122402;23;20017;-83
2023/04/10 07:06:09;;;;;;;31.15;16.83;;;;;;;;;;6120755;23;20080;-83
2023/04/10 07:08:35;;;;;;;32.50;17.45;;;;;;;;;;6120643;23;20444;-84
2023/04/10 07:11:00;;;;;;;32.05;17.85;;;;;;;;;;6122445;23;20081;-84
2023/04/10 07:13:25;;;;;;;31.30;16.45;;;;;;;;;;6125282;23;20402;-84
2023/04/10 07:15:51;;;;;;;30.73;16.25;;;;;;;;;;6147157;23;20022;-84
2023/04/10 07:18:16;;;;;;;32.90;15.90;;;;;;;;;;6118053;23;20029;-84
2023/04/10 07:20:41;;;;;;;32.42;17.92;;;;;;;;;;6097404;23;20017;-84
2023/04/10 07:23:07;;;;;;;29.73;17.00;;;;;;;;;;6151617;23;20020;-84
2023/04/10 07:25:32;;;;;;;31.60;17.70;;;;;;;;;;6122205;23;20049;-84
2023/04/10 07:27:58;;;;;;;30.98;17.58;;;;;;;;;;6097223;23;20029;-84
2023/04/10 07:30:23;;;;;;;32.05;17.63;;;;;;;;;;6148450;23;20024;-84
2023/04/10 07:32:48;;;;;;;31.65;17.88;;;;;;;;;;6133964;23;20037;-83
2023/04/10 07:35:14;;;;;;;32.58;16.67;;;;;;;;;;6123658;23;20017;-84
2023/04/10 07:37:42;;;;;;;34.15;18.23;;;;;;;;;;6147596;23;20188;-84
2023/04/10 07:40:08;;;;;;;31.80;17.88;;;;;;;;;;6150110;23;20025;-84
2023/04/10 07:42:35;;;;;;;32.13;17.13;;;;;;;;;;6109430;23;20009;-84
2023/04/10 07:45:01;;;;;;;35.00;17.77;;;;;;;;;;6125929;23;20459;-84
2023/04/10 07:47:26;;;;;;;31.60;17.13;;;;;;;;;;6123675;23;20020;-85
2023/04/10 07:49:51;;;;;;;30.60;17.00;;;;;;;;;;6151364;23;20021;-85
2023/04/10 07:52:17;;;;;;;36.20;19.10;;;;;;;;;;6150564;23;20405;-85
2023/04/10 07:54:42;;;;;;;28.90;16.23;;;;;;;;;;6093099;23;20009;-85
2023/04/10 07:57:08;;;;;;;31.42;17.45;;;;;;;;;;6122609;23;20021;-85
2023/04/10 07:59:33;;;;;;;26.63;15.45;;;;;;;;;;6122596;23;20024;-85
2023/04/10 08:01:58;;;;;;;27.23;15.60;;;;;;;;;;6149442;23;20022;-85
2023/04/10 08:04:24;;;;;;;32.63;16.95;;;;;;;;;;6152548;23;20686;-84
2023/04/10 08:06:49;;;;;;;30.77;16.83;;;;;;;;;;6126599;23;20017;-85
2023/04/10 08:09:15;;;;;;;30.58;17.75;;;;;;;;;;6124909;23;20013;-85
2023/04/10 08:11:43;;;;;;;33.20;18.45;;;;;;;;;;6148866;23;20344;-85
2023/04/10 08:14:29;;;;;;;29.38;16.80;;;;;;;;;;6120079;23;20080;-86
2023/04/10 08:16:54;;;;;;;29.05;16.05;;;;;;;;;;6018775;23;20111;-86
2023/04/10 08:19:20;;;;;;;25.80;14.77;;;;;;;;;;6034660;23;20405;-86
2023/04/10 08:21:45;;;;;;;25.17;14.73;;;;;;;;;;6084168;23;20018;-86
2023/04/10 08:24:11;;;;;;;24.95;13.65;;;;;;;;;;6035885;23;20014;-87
2023/04/10 08:26:36;;;;;;;24.17;13.60;;;;;;;;;;6058493;23;20023;-86
2023/04/10 08:29:02;;;;;;;24.42;14.30;;;;;;;;;;6037521;23;20019;-85
2023/04/10 08:31:28;;;;;;;25.25;13.73;;;;;;;;;;6054526;23;20396;-85
2023/04/10 08:33:54;;;;;;;24.48;13.93;;;;;;;;;;6033095;23;20152;-85
2023/04/10 08:36:20;;;;;;;21.02;12.88;;;;;;;;;;6061348;23;20442;-86
2023/04/10 08:38:46;;;;;;;23.25;13.65;;;;;;;;;;6055970;23;20055;-85
2023/04/10 08:41:17;;;;;;;22.38;12.52;;;;;;;;;;6031694;23;20018;-86
2023/04/10 08:43:44;;;;;;;22.17;12.48;;;;;;;;;;6047291;23;20492;-86
2023/04/10 08:46:10;;;;;;;23.55;12.27;;;;;;;;;;6026819;23;20156;-86
2023/04/10 08:48:44;;;;;;;21.83;12.40;;;;;;;;;;6026071;23;20026;-87
2023/04/10 08:51:13;;;;;;;21.02;12.25;;;;;;;;;;6002825;23;20051;-84
2023/04/10 08:53:40;;;;;;;19.00;11.18;;;;;;;;;;6054114;23;20025;-84
2023/04/10 08:56:06;;;;;;;18.90;11.85;;;;;;;;;;6065418;23;20017;-84
2023/04/10 08:58:32;;;;;;;21.27;10.88;;;;;;;;;;6116590;23;20014;-83
2023/04/10 09:00:58;;;;;;;21.27;11.60;;;;;;;;;;6065485;23;20025;-85
2023/04/10 09:03:24;;;;;;;19.83;12.03;;;;;;;;;;6090528;23;20447;-84
2023/04/10 09:05:50;;;;;;;19.00;11.27;;;;;;;;;;6115597;23;20010;-84
2023/04/10 09:08:15;;;;;;;16.38;10.27;;;;;;;;;;6089613;23;20018;-84
2023/04/10 09:10:40;;;;;;;14.50;9.57;;;;;;;;;;6090656;23;20351;-85
2023/04/10 09:13:06;;;;;;;15.68;10.25;;;;;;;;;;6090687;23;20017;-84
2023/04/10 09:15:57;;;;;;;15.13;9.73;;;;;;;;;;6114897;23;20648;-84
2023/04/10 09:18:42;;;;;;;15.48;9.63;;;;;;;;;;6065223;23;20038;-84
2023/04/10 09:21:09;;;;;;;15.77;9.75;;;;;;;;;;6115453;23;20022;-84
2023/04/10 09:23:35;;;;;;;17.13;10.60;;;;;;;;;;6065471;23;24666;-77
2023/04/10 09:26:00;;;;;;;16.67;10.85;;;;;;;;;;6115260;23;20659;-85
2023/04/10 09:28:25;;;;;;;15.07;9.48;;;;;;;;;;6090348;23;20092;-84
2023/04/10 09:30:51;;;;;;;16.85;10.65;;;;;;;;;;6089224;23;20021;-82
2023/04/10 09:33:22;;;;;;;15.35;10.02;;;;;;;;;;6065677;23;20037;-83
2023/04/10 09:35:48;;;;;;;14.95;9.88;;;;;;;;;;6114912;23;20022;-84
2023/04/10 09:38:19;;;;;;;13.68;9.43;;;;;;;;;;6090581;23;20014;-83
2023/04/10 09:40:45;;;;;;;12.88;8.48;;;;;;;;;;6089553;23;20436;-84
2023/04/10 09:43:24;;;;;;;13.48;8.88;;;;;;;;;;6090532;23;20089;-84
2023/04/10 09:45:51;;;;;;;14.40;8.48;;;;;;;;;;6144032;23;20037;-84
2023/04/10 09:48:19;;;;;;;13.55;8.65;;;;;;;;;;6094270;23;20017;-84
2023/04/10 09:50:44;;;;;;;14.02;9.15;;;;;;;;;;6117263;23;20022;-83
2023/04/10 09:53:12;;;;;;;11.90;8.40;;;;;;;;;;6144837;23;20456;-83
2023/04/10 09:55:37;;;;;;;;;;;;;;;;;;6105091;23;20427;-83
2023/04/10 09:58:04;;;;;;;11.98;8.20;;;;;;;;;;6116890;23;19913;-83
2023/04/10 10:00:33;;;;;;;13.07;8.75;;;;;;;;;;6094305;23;20393;-83
2023/04/10 10:03:00;;;;;;;14.98;9.20;;;;;;;;;;6118935;23;20447;-83
2023/04/10 10:05:29;;;;;;;13.95;9.20;;;;;;;;;;6118431;23;20420;-84
2023/04/10 10:07:56;;;;;;;14.18;8.75;;;;;;;;;;6094919;23;20161;-86
2023/04/10 10:10:44;;;;;;;16.02;9.82;;;;;;;;;;6102184;23;20025;-85
2023/04/10 10:13:10;;;;;;;13.18;8.00;;;;;;;;;;6082715;23;20455;-88
2023/04/10 10:15:45;;;;;;;14.30;8.43;;;;;;;;;;6082641;23;20029;-89
2023/04/10 10:18:20;;;;;;;12.45;7.63;;;;;;;;;;6059458;23;20045;-85
2023/04/10 10:20:46;;;;;;;11.93;7.10;;;;;;;;;;6083425;23;20519;-85
2023/04/10 10:23:13;;;;;;;12.43;7.70;;;;;;;;;;6085330;23;20010;-88
2023/04/10 10:25:38;;;;;;;13.57;7.72;;;;;;;;;;6084015;23;20018;-88
2023/04/10 10:28:04;;;;;;;14.00;7.95;;;;;;;;;;6062005;23;20511;-88
2023/04/10 10:30:33;;;;;;;12.38;7.75;;;;;;;;;;6061843;23;20452;-86
2023/04/10 10:33:01;;;;;;;10.82;6.78;;;;;;;;;;6111893;23;20033;-88
2023/04/10 10:35:26;;;;;;;11.10;7.13;;;;;;;;;;6085191;23;20015;-87
2023/04/10 10:37:53;;;;;;;11.23;6.90;;;;;;;;;;6086888;23;20298;-87
2023/04/10 10:40:24;;;;;;;11.23;6.57;;;;;;;;;;6062232;23;20121;-89
2023/04/10 10:43:04;;;;;;;10.43;6.53;;;;;;;;;;6063539;23;20452;-89
2023/04/10 10:45:33;;;;;;;10.77;6.30;;;;;;;;;;6083793;23;20022;-84
2023/04/10 10:47:59;;;;;;;9.65;6.05;;;;;;;;;;6035541;23;20030;-89
2023/04/10 10:50:24;;;;;;;10.05;5.97;;;;;;;;;;6149120;23;20035;-88
2023/04/10 10:52:52;;;;;;;10.60;6.22;;;;;;;;;;6120308;23;20037;-86
2023/04/10 10:55:20;;;;;;;8.25;5.72;;;;;;;;;;6145776;23;20022;-84
2023/04/10 10:57:47;;;;;;;11.02;6.20;;;;;;;;;;6144694;23;20028;-86
2023/04/10 11:00:14;;;;;;;10.57;6.55;;;;;;;;;;6098808;23;20025;-87
2023/04/10 11:02:40;;;;;;;9.88;6.07;;;;;;;;;;6100202;23;20072;-88
2023/04/10 11:05:05;;;;;;;10.02;5.85;;;;;;;;;;6124537;23;20052;-88
2023/04/10 11:08:00;;;;;;;9.75;6.18;;;;;;;;;;6124369;23;20026;-88
2023/04/10 11:11:06;;;;;;;10.32;6.18;;;;;;;;;;6112032;23;20444;-89
2023/04/10 11:13:34;;;;;;;10.98;5.82;;;;;;;;;;6122766;23;20017;-87
2023/04/10 11:16:01;;;;;;;9.77;5.68;;;;;;;;;;6124132;23;20391;-88
2023/04/10 11:18:45;;;;;;;9.65;5.78;;;;;;;;;;6122305;23;20470;-88
2023/04/10 11:21:10;;;;;;;8.98;5.18;;;;;;;;;;6150104;23;20021;-89
2023/04/10 11:23:56;;;;;;;9.55;5.97;;;;;;;;;;6122086;23;20028;-88
2023/04/10 11:26:43;;;;;;;9.32;5.45;;;;;;;;;;6127188;23;20013;-89
2023/04/10 11:29:11;;;;;;;8.80;5.30;;;;;;;;;;6150715;23;20029;-89
2023/04/10 11:31:37;;;;;;;9.85;5.28;;;;;;;;;;6149057;23;20028;-89
2023/04/10 11:34:05;;;;;;;10.02;5.95;;;;;;;;;;6122005;23;20021;-88
2023/04/10 11:36:31;;;;;;;9.48;5.78;;;;;;;;;;6139698;23;20017;-88
2023/04/10 11:39:01;;;;;;;10.00;5.97;;;;;;;;;;6121802;23;20024;-87
2023/04/10 11:41:31;;;;;;;9.68;5.70;;;;;;;;;;6146950;23;20475;-87
2023/04/10 11:43:57;;;;;;;10.15;5.72;;;;;;;;;;6121477;23;20025;-88
2023/04/10 11:46:23;;;;;;;9.60;5.00;;;;;;;;;;6123221;23;20017;-88
2023/04/10 11:48:54;;;;;;;8.27;5.20;;;;;;;;;;6122650;23;20499;-89
2023/04/10 11:51:20;;;;;;;10.20;6.10;;;;;;;;;;6121209;23;20019;-88
2023/04/10 11:53:47;;;;;;;8.93;5.32;;;;;;;;;;6124262;23;20514;-85
2023/04/10 11:56:22;;;;;;;11.13;5.70;;;;;;;;;;6148238;23;20017;-88
2023/04/10 11:58:51;;;;;;;7.93;4.95;;;;;;;;;;6122418;23;20276;-88
2023/04/10 12:01:20;;;;;;;9.30;5.70;;;;;;;;;;6099051;23;20101;-87
2023/04/10 12:03:45;;;;;;;8.50;4.95;;;;;;;;;;6125864;23;20009;-88
2023/04/10 12:06:12;;;;;;;8.10;5.18;;;;;;;;;;6125403;23;20314;-88
2023/04/10 12:08:44;;;;;;;8.90;5.13;;;;;;;;;;6123614;23;20341;-88
2023/04/10 12:11:10;;;;;;;8.27;5.03;;;;;;;;;;6098999;23;20456;-88
2023/04/10 12:13:36;;;;;;;9.55;5.50;;;;;;;;;;6120883;23;20162;-88
2023/04/10 12:16:06;;;;;;;9.77;5.43;;;;;;;;;;6122906;23;20022;-88
2023/04/10 12:18:32;;;;;;;10.38;5.70;;;;;;;;;;6125506;23;20400;-88
2023/04/10 12:20:58;;;;;;;10.13;5.55;;;;;;;;;;6098828;23;20022;-88
2023/04/10 12:23:25;;;;;;;9.63;6.00;;;;;;;;;;6122503;23;20013;-88
2023/04/10 12:25:52;;;;;;;10.80;6.15;;;;;;;;;;6147689;23;20402;-84
2023/04/10 12:28:20;;;;;;;10.68;6.20;;;;;;;;;;6125065;23;20112;-86
2023/04/10 12:30:56;;;;;;;9.07;5.60;;;;;;;;;;6097738;23;20380;-84
2023/04/10 12:33:22;;;;;;;10.30;5.00;;;;;;;;;;6124273;23;20025;-86
2023/04/10 12:35:48;;;;;;;9.73;5.55;;;;;;;;;;6122561;23;20013;-84
2023/04/10 12:38:13;;;;;;;9.98;5.72;;;;;;;;;;6099768;23;20013;-86
2023/04/10 12:40:57;;;;;;;9.20;5.30;;;;;;;;;;6123707;23;20038;-87
2023/04/10 12:43:39;;;;;;;9.75;5.53;;;;;;;;;;6125871;23;20089;-88
2023/04/10 12:46:06;;;;;;;10.85;5.47;;;;;;;;;;6126482;23;20017;-87
2023/04/10 12:48:31;;;;;;;9.20;5.15;;;;;;;;;;6124795;23;20038;-86
2023/04/10 12:50:57;;;;;;;8.88;5.20;;;;;;;;;;6128009;23;20017;-87
2023/04/10 12:53:23;;;;;;;8.05;4.63;;;;;;;;;;6126173;23;20357;-86
2023/04/10 12:56:03;;;;;;;9.88;5.70;;;;;;;;;;6121987;23;20092;-84
2023/04/10 12:58:30;;;;;;;12.02;5.95;;;;;;;;;;6124103;23;20010;-85
2023/04/10 13:01:02;;;;;;;9.33;5.00;;;;;;;;;;6150233;23;20336;-88
2023/04/10 13:03:28;;;;;;;9.43;4.80;;;;;;;;;;6126789;23;20123;-88
2023/04/10 13:05:53;;;;;;;8.40;4.82;;;;;;;;;;6124700;23;20025;-88
2023/04/10 13:08:19;;;;;;;8.57;5.07;;;;;;;;;;6153524;23;20084;-87
2023/04/10 13:10:45;;;;;;;11.13;5.40;;;;;;;;;;6121510;23;20036;-86
2023/04/10 13:13:11;;;;;;;9.48;5.35;;;;;;;;;;6122438;23;20017;-88
2023/04/10 13:15:37;;;;;;;11.02;5.68;;;;;;;;;;6120736;23;20480;-86
2023/04/10 13:18:05;;;;;;;11.02;5.20;;;;;;;;;;6122127;23;20072;-84
2023/04/10 13:20:31;;;;;;;8.02;4.68;;;;;;;;;;6095108;23;20525;-87
2023/04/10 13:22:57;;;;;;;7.72;4.25;;;;;;;;;;6123937;23;20100;-87
2023/04/10 13:25:22;;;;;;;8.77;4.65;;;;;;;;;;6120449;23;20100;-87
2023/04/10 13:27:48;;;;;;;8.05;4.43;;;;;;;;;;6119338;23;20029;-84
2023/04/10 13:30:13;;;;;;;7.68;4.45;;;;;;;;;;6121762;23;20041;-85
2023/04/10 13:32:39;;;;;;;10.80;4.90;;;;;;;;;;6146095;23;20348;-86
2023/04/10 13:35:05;;;;;;;9.27;4.95;;;;;;;;;;6094822;23;20017;-87
2023/04/10 13:37:30;;;;;;;7.97;4.57;;;;;;;;;;6150513;23;20459;-87
2023/04/10 13:39:56;;;;;;;8.00;4.15;;;;;;;;;;6100054;23;20009;-87
2023/04/10 13:42:21;;;;;;;8.27;4.43;;;;;;;;;;6121293;23;20009;-88
2023/04/10 13:44:47;;;;;;;6.40;3.90;;;;;;;;;;6123101;23;20108;-86
2023/04/10 13:47:13;;;;;;;9.10;4.70;;;;;;;;;;6122122;23;20025;-87
2023/04/10 13:49:38;;;;;;;6.63;4.18;;;;;;;;;;6099979;23;20013;-88
2023/04/10 13:52:04;;;;;;;7.18;4.13;;;;;;;;;;6121457;23;20024;-88
2023/04/10 13:54:29;;;;;;;6.75;3.92;;;;;;;;;;6121303;23;20009;-86
2023/04/10 13:56:55;;;;;;;9.50;4.07;;;;;;;;;;6121486;23;20451;-88
2023/04/10 13:59:20;;;;;;;7.65;4.47;;;;;;;;;;6124997;23;20100;-87
2023/04/10 14:01:46;;;;;;;7.40;4.35;;;;;;;;;;6147323;23;20696;-88
2023/04/10 14:04:13;;;;;;;9.30;4.10;;;;;;;;;;6124239;23;20071;-88
2023/04/10 14:06:39;;;;;;;8.30;4.45;;;;;;;;;;6118587;23;20391;-89
2023/04/10 14:09:05;;;;;;;6.88;4.22;;;;;;;;;;6099169;23;20120;-89
2023/04/10 14:11:31;;;;;;;7.95;3.95;;;;;;;;;;6120594;23;20017;-85
2023/04/10 14:13:56;;;;;;;8.40;4.03;;;;;;;;;;6145712;23;20017;-89
2023/04/10 14:16:21;;;;;;;6.97;4.28;;;;;;;;;;6120769;23;20052;-87
2023/04/10 14:18:47;;;;;;;9.98;4.30;;;;;;;;;;6146602;23;20025;-88
2023/04/10 14:21:12;;;;;;;5.95;3.95;;;;;;;;;;6096261;23;20014;-88
2023/04/10 14:23:38;;;;;;;7.13;4.03;;;;;;;;;;6120817;23;20136;-88